Grand Ace10 — 3EPV8 — position and weather

sailwx.info

Track history (hours):
 
Tides and Currents Weather Stations Pressure Air Temp Water Temp Dewpoint Dewpoint Depression Visibility Wind Speed Wind Dir Waves Ship Positions

Grand Ace10

Last reported at 2017-Dec-09 17:00 UTC. Time now 2017-Dec-14 14:51 UTC.
Position N 33°42' W 118°13'.

Length 182 m; draft 8.2 m.

Type: Tanker. MMSI: 354252000.

Date/timePositionNaut miles runAvg speedWind from/ knotsBaromVisibWave heightAir tempDewpointWater temp
2017-Dec-09 17:00N 33°42' W 118°13'0 0.3
2017-Dec-09 16:30N 33°42' W 118°13'3 0.1
2017-Dec-07 13:35N 33°39' W 118°11'1 8.5
2017-Dec-07 13:30N 33°38' W 118°11'11 7.4
2017-Dec-07 11:58N 33°28' W 118°06'1 1.9
2017-Dec-07 11:26N 33°27' W 118°06'1 2.0
2017-Dec-07 11:00N 33°26' W 118°06'2 2.4
2017-Dec-07 10:13N 33°24' W 118°05'0 2.4
2017-Dec-07 10:00N 33°23' W 118°05'5 5.5
2017-Dec-07 09:08N 33°19' W 118°03'311.6
2017-Dec-07 08:53N 33°16' W 118°03'411.6
2017-Dec-07 08:30N 33°12' W 118°05'711.3
2017-Dec-07 07:50N 33°05' W 118°06'411.2
2017-Dec-07 07:29N 33°01' W 118°08'511.3
2017-Dec-07 07:01N 32°56' W 118°09'1111.5
2017-Dec-07 06:04N 32°45' W 118°12'111.0
2017-Dec-07 06:01N 32°44' W 118°12'711.3
2017-Dec-07 05:23N 32°40' W 118°18'411.2
2017-Dec-07 05:01N 32°36' W 118°22'610.8
2017-Dec-07 04:29N 32°32' W 118°26'511.3
2017-Dec-07 04:00N 32°27' W 118°28'611.1
2017-Dec-07 03:30N 32°22' W 118°31'611.3
2017-Dec-07 03:01N 32°17' W 118°33'611.1
2017-Dec-07 02:30N 32°12' W 118°36'611.3
2017-Dec-07 02:00N 32°06' W 118°38'611.2
2017-Dec-07 01:31N 32°01' W 118°41'611.3
2017-Dec-07 00:59N 31°56' W 118°43'611.7
2017-Dec-07 00:31N 31°51' W 118°46'1411.5
2017-Dec-06 23:18N 31°38' W 118°52'1111.6
2017-Dec-06 22:18N 31°27' W 118°57'311.4
2017-Dec-06 22:00N 31°24' W 118°59'611.2
2017-Dec-06 21:30N 31°19' W 119°01'  
Track history (hours):
 
Tides and Currents Weather Stations Pressure Air Temp Water Temp Dewpoint Dewpoint Depression Visibility Wind Speed Wind Dir Waves Ship Positions

Grand Ace10

Last reported at 2017-Dec-09 17:00 UTC. Time now 2017-Dec-14 14:51 UTC.
Position N 33°42' W 118°13'.

Length 182 m; draft 8.2 m.

Type: Tanker. MMSI: 354252000.

Date/timePositionNaut miles runAvg speedWind from/ knotsBaromVisibWave heightAir tempDewpointWater temp
2017-Dec-09 17:00N 33°42' W 118°13'0 0.3
2017-Dec-09 16:30N 33°42' W 118°13'3 0.1
2017-Dec-07 13:35N 33°39' W 118°11'1 8.5
2017-Dec-07 13:30N 33°38' W 118°11'11 7.4
2017-Dec-07 11:58N 33°28' W 118°06'1 1.9
2017-Dec-07 11:26N 33°27' W 118°06'1 2.0
2017-Dec-07 11:00N 33°26' W 118°06'2 2.4
2017-Dec-07 10:13N 33°24' W 118°05'0 2.4
2017-Dec-07 10:00N 33°23' W 118°05'5 5.5
2017-Dec-07 09:08N 33°19' W 118°03'311.6
2017-Dec-07 08:53N 33°16' W 118°03'411.6
2017-Dec-07 08:30N 33°12' W 118°05'711.3
2017-Dec-07 07:50N 33°05' W 118°06'411.2
2017-Dec-07 07:29N 33°01' W 118°08'511.3
2017-Dec-07 07:01N 32°56' W 118°09'1111.5
2017-Dec-07 06:04N 32°45' W 118°12'111.0
2017-Dec-07 06:01N 32°44' W 118°12'711.3
2017-Dec-07 05:23N 32°40' W 118°18'411.2
2017-Dec-07 05:01N 32°36' W 118°22'610.8
2017-Dec-07 04:29N 32°32' W 118°26'511.3
2017-Dec-07 04:00N 32°27' W 118°28'611.1
2017-Dec-07 03:30N 32°22' W 118°31'611.3
2017-Dec-07 03:01N 32°17' W 118°33'611.1
2017-Dec-07 02:30N 32°12' W 118°36'611.3
2017-Dec-07 02:00N 32°06' W 118°38'611.2
2017-Dec-07 01:31N 32°01' W 118°41'611.3
2017-Dec-07 00:59N 31°56' W 118°43'611.7
2017-Dec-07 00:31N 31°51' W 118°46'1411.5
2017-Dec-06 23:18N 31°38' W 118°52'1111.6
2017-Dec-06 22:18N 31°27' W 118°57'311.4
2017-Dec-06 22:00N 31°24' W 118°59'611.2
2017-Dec-06 21:30N 31°19' W 119°01'  

Dump ship's entire track history